Time;durP1;ratioP1;P1;durP2;ratioP2;P2;SDS_P1;SDS_P2;PMS_P1;PMS_P2;Temp;Humidity;BMP_temperature;BMP_pressure;BME280_temperature;BME280_humidity;BME280_pressure;Samples;Min_cycle;Max_cycle;Signal;HPM_P1;HPM_P2
2023/12/02 00:02:16;;;;;;;;;;;384.40;2329.60;;;;;;4991312;28;19909;-74
2023/12/02 00:04:42;;;;;;;;;;;384.30;2329.60;;;;;;4989798;28;19917;-74
2023/12/02 00:07:07;;;;;;;;;;;384.20;2329.60;;;;;;4992674;28;19914;-74
2023/12/02 00:09:34;;;;;;;;;;;384.30;2329.60;;;;;;4991678;28;20035;-76
2023/12/02 00:11:59;;;;;;;;;;;384.30;2329.60;;;;;;4973082;28;19913;-74
2023/12/02 00:14:25;;;;;;;;;;;384.40;2329.60;;;;;;4991312;28;19909;-74
2023/12/02 00:16:50;;;;;;;;;;;384.50;2329.60;;;;;;4987058;28;19917;-74
2023/12/02 00:19:16;;;;;;;;;;;384.60;2329.60;;;;;;4994031;28;19906;-74
2023/12/02 00:21:42;;;;;;;;;;;384.60;2329.60;;;;;;4990644;28;19968;-74
2023/12/02 00:24:07;;;;;;;;;;;384.60;2329.60;;;;;;4967557;28;19914;-74
2023/12/02 00:26:33;;;;;;;;;;;384.60;2329.60;;;;;;4989207;28;19976;-74
2023/12/02 00:28:58;;;;;;;;;;;384.60;2329.60;;;;;;4968752;28;20260;-74
2023/12/02 00:31:24;;;;;;;;;;;384.50;2329.60;;;;;;4992144;28;19910;-74
2023/12/02 00:33:50;;;;;;;;;;;384.50;2329.60;;;;;;4994035;28;20374;-74
2023/12/02 00:36:15;;;;;;;;;;;384.60;2329.60;;;;;;4994585;28;19906;-75
2023/12/02 00:38:41;;;;;;;;;;;384.50;2329.60;;;;;;4968792;28;19910;-74
2023/12/02 00:41:10;;;;;;;;;;;384.50;2329.60;;;;;;4994544;28;19906;-74
2023/12/02 00:43:36;;;;;;;;;;;384.50;2329.60;;;;;;4994660;28;19906;-75
2023/12/02 00:46:01;;;;;;;;;;;384.40;2329.60;;;;;;4994398;28;20344;-74
2023/12/02 00:48:27;;;;;;;;;;;384.40;2329.60;;;;;;4994460;28;19917;-74
2023/12/02 00:50:53;;;;;;;;;;;384.40;2329.60;;;;;;4994406;28;20007;-75
2023/12/02 00:53:18;;;;;;;;;;;384.40;2329.60;;;;;;4976942;28;19910;-74
2023/12/02 00:55:44;;;;;;;;;;;384.40;2329.60;;;;;;4979846;28;19909;-74
2023/12/02 00:58:10;;;;;;;;;;;384.40;2329.60;;;;;;4972928;28;20357;-75
2023/12/02 01:00:35;;;;;;;;;;;384.30;2329.60;;;;;;4974659;28;19961;-74
2023/12/02 01:03:01;;;;;;;;;;;384.30;2329.60;;;;;;4974842;28;19906;-74
2023/12/02 01:05:27;;;;;;;;;;;384.20;2329.60;;;;;;4957829;28;19906;-75
2023/12/02 01:07:52;;;;;;;;;;;384.20;2329.60;;;;;;4973714;28;20470;-74
2023/12/02 01:10:18;;;;;;;;;;;384.20;2329.60;;;;;;4974822;28;19949;-74
2023/12/02 01:12:43;;;;;;;;;;;384.20;2329.60;;;;;;4974780;28;20348;-74
2023/12/02 01:15:09;;;;;;;;;;;384.20;2329.60;;;;;;4974799;28;19906;-74
2023/12/02 01:17:34;;;;;;;;;;;384.20;2329.60;;;;;;4974658;28;20379;-74
2023/12/02 01:20:00;;;;;;;;;;;384.30;2329.60;;;;;;4974499;28;19910;-75
2023/12/02 01:22:26;;;;;;;;;;;384.30;2329.60;;;;;;4974544;28;19929;-74
2023/12/02 01:24:51;;;;;;;;;;;384.20;2329.60;;;;;;4974609;28;19913;-75
2023/12/02 01:27:17;;;;;;;;;;;384.10;2329.60;;;;;;4974742;28;19917;-75
2023/12/02 01:29:42;;;;;;;;;;;384.00;2329.60;;;;;;4974755;28;20338;-74
2023/12/02 01:32:08;;;;;;;;;;;384.00;2329.60;;;;;;4974696;28;19913;-74
2023/12/02 01:34:33;;;;;;;;;;;384.00;2329.60;;;;;;4974659;28;20293;-74
2023/12/02 01:36:59;;;;;;;;;;;384.00;2329.60;;;;;;4974493;28;19906;-74
2023/12/02 01:39:26;;;;;;;;;;;384.10;2329.60;;;;;;4974639;28;20356;-74
2023/12/02 01:41:51;;;;;;;;;;;384.10;2329.60;;;;;;4974574;28;19906;-74
2023/12/02 01:44:18;;;;;;;;;;;384.10;2329.60;;;;;;4974725;28;20374;-74
2023/12/02 01:46:45;;;;;;;;;;;384.10;2329.60;;;;;;4974423;28;19906;-75
2023/12/02 01:49:12;;;;;;;;;;;384.00;2329.60;;;;;;4974435;28;19957;-74
2023/12/02 01:51:38;;;;;;;;;;;384.00;2329.60;;;;;;4974427;28;19997;-74
2023/12/02 01:54:04;;;;;;;;;;;384.00;2329.60;;;;;;4974444;28;19980;-74
2023/12/02 01:56:30;;;;;;;;;;;384.00;2329.60;;;;;;4974593;28;20352;-75
2023/12/02 01:58:56;;;;;;;;;;;384.00;2329.60;;;;;;4973117;28;20356;-74
2023/12/02 02:01:21;;;;;;;;;;;384.00;2329.60;;;;;;4974281;28;19913;-74
2023/12/02 02:03:50;;;;;;;;;;;384.00;2329.60;;;;;;4974345;28;19954;-74
2023/12/02 02:06:16;;;;;;;;;;;384.00;2329.60;;;;;;4973072;28;19945;-74
2023/12/02 02:08:41;;;;;;;;;;;384.00;2329.60;;;;;;4974350;28;19968;-74
2023/12/02 02:11:07;;;;;;;;;;;359.30;2329.60;;;;;;4975852;28;19912;-75
2023/12/02 02:13:33;;;;;;;;;;;359.30;2329.60;;;;;;4977976;28;20057;-73
2023/12/02 02:15:58;;;;;;;;;;;359.30;2329.60;;;;;;4977785;28;20379;-74
2023/12/02 02:18:24;;;;;;;;;;;359.30;2329.60;;;;;;4977704;28;20021;-74
2023/12/02 02:20:50;;;;;;;;;;;359.30;2329.60;;;;;;4977856;28;19916;-75
2023/12/02 02:23:17;;;;;;;;;;;359.30;2329.60;;;;;;4977593;28;19922;-74
2023/12/02 02:25:43;;;;;;;;;;;359.30;2329.60;;;;;;4977685;28;19909;-74
2023/12/02 02:28:08;;;;;;;;;;;359.30;2329.60;;;;;;4977613;28;20008;-74
2023/12/02 02:30:34;;;;;;;;;;;359.30;2329.60;;;;;;4976515;28;19906;-74
2023/12/02 02:32:59;;;;;;;;;;;359.20;2329.60;;;;;;4977365;28;19953;-74
2023/12/02 02:35:25;;;;;;;;;;;359.20;2329.60;;;;;;4977426;28;19968;-75
2023/12/02 02:37:51;;;;;;;;;;;359.20;2329.60;;;;;;4977538;28;19909;-74
2023/12/02 02:40:16;;;;;;;;;;;359.20;2329.60;;;;;;4976527;28;19929;-75
2023/12/02 02:42:42;;;;;;;;;;;359.20;2329.60;;;;;;4977401;28;19906;-74
2023/12/02 02:45:08;;;;;;;;;;;359.30;2329.60;;;;;;4977245;28;19913;-74
2023/12/02 02:47:33;;;;;;;;;;;359.30;2329.60;;;;;;4977131;28;20342;-74
2023/12/02 02:49:59;;;;;;;;;;;359.30;2329.60;;;;;;4977159;28;20346;-74
2023/12/02 02:52:24;;;;;;;;;;;359.30;2329.60;;;;;;4977218;28;19917;-74
2023/12/02 02:54:50;;;;;;;;;;;359.20;2329.60;;;;;;4977284;28;20348;-74
2023/12/02 02:57:19;;;;;;;;;;;359.20;2329.60;;;;;;4975918;28;19906;-74
2023/12/02 02:59:45;;;;;;;;;;;359.20;2329.60;;;;;;4977205;28;20364;-75
2023/12/02 03:02:10;;;;;;;;;;;359.20;2329.60;;;;;;4975688;28;19913;-74
2023/12/02 03:04:36;;;;;;;;;;;359.30;2329.60;;;;;;4975703;28;19942;-74
2023/12/02 03:07:01;;;;;;;;;;;384.00;2329.60;;;;;;4976960;28;20036;-75
2023/12/02 03:09:27;;;;;;;;;;;359.30;2329.60;;;;;;4976901;28;19917;-74
2023/12/02 03:11:53;;;;;;;;;;;359.30;2329.60;;;;;;4976925;28;19913;-75
2023/12/02 03:14:18;;;;;;;;;;;384.00;2329.60;;;;;;4976861;28;19914;-75
2023/12/02 03:16:44;;;;;;;;;;;384.00;2329.60;;;;;;4976570;28;19938;-74
2023/12/02 03:19:09;;;;;;;;;;;384.00;2329.60;;;;;;4976862;28;19906;-74
2023/12/02 03:21:35;;;;;;;;;;;384.10;2329.60;;;;;;4975792;28;19914;-74
2023/12/02 03:24:01;;;;;;;;;;;384.10;2329.60;;;;;;4976985;28;19945;-74
2023/12/02 03:26:26;;;;;;;;;;;384.20;2329.60;;;;;;4975363;28;19968;-74
2023/12/02 03:28:52;;;;;;;;;;;384.30;2329.60;;;;;;4977097;28;19914;-74
2023/12/02 03:31:18;;;;;;;;;;;384.30;2329.60;;;;;;4959416;28;19906;-75
2023/12/02 03:33:44;;;;;;;;;;;384.30;2329.60;;;;;;4976336;28;20005;-75
2023/12/02 03:36:10;;;;;;;;;;;384.30;2329.60;;;;;;4976438;28;19945;-74
2023/12/02 03:38:35;;;;;;;;;;;384.30;2329.60;;;;;;4976378;28;20048;-74
2023/12/02 03:41:02;;;;;;;;;;;384.30;2329.60;;;;;;4976273;28;19906;-74
2023/12/02 03:43:28;;;;;;;;;;;384.30;2329.60;;;;;;4959113;28;19932;-74
2023/12/02 03:45:55;;;;;;;;;;;384.30;2329.60;;;;;;4976254;28;20283;-74
2023/12/02 03:48:21;;;;;;;;;;;384.30;2329.60;;;;;;4976209;28;19920;-74
2023/12/02 03:50:46;;;;;;;;;;;384.30;2329.60;;;;;;4976048;28;19915;-74
2023/12/02 03:53:12;;;;;;;;;;;384.30;2329.60;;;;;;4976044;28;19910;-74
2023/12/02 03:55:38;;;;;;;;;;;384.30;2329.60;;;;;;4976066;28;19906;-74
2023/12/02 03:58:03;;;;;;;;;;;384.30;2329.60;;;;;;4975985;28;19910;-74
2023/12/02 04:00:29;;;;;;;;;;;384.30;2329.60;;;;;;4976014;28;20418;-74
2023/12/02 04:02:54;;;;;;;;;;;384.20;2329.60;;;;;;4975093;28;19953;-75
2023/12/02 04:05:20;;;;;;;;;;;384.20;2329.60;;;;;;4975399;28;19953;-75
2023/12/02 04:07:46;;;;;;;;;;;384.10;2329.60;;;;;;4975179;28;19918;-74
2023/12/02 04:10:11;;;;;;;;;;;384.00;2329.60;;;;;;4975257;28;19906;-74
2023/12/02 04:12:37;;;;;;;;;;;384.00;2329.60;;;;;;4975244;28;19906;-75
2023/12/02 04:15:04;;;;;;;;;;;384.00;2329.60;;;;;;4975043;28;19906;-74
2023/12/02 04:17:30;;;;;;;;;;;384.00;2329.60;;;;;;4974993;28;19913;-74
2023/12/02 04:19:55;;;;;;;;;;;384.00;2329.60;;;;;;4974930;28;19910;-74
2023/12/02 04:22:21;;;;;;;;;;;384.10;2329.60;;;;;;4974794;28;19922;-74
2023/12/02 04:24:47;;;;;;;;;;;384.20;2329.60;;;;;;4974849;28;19914;-75
2023/12/02 04:27:12;;;;;;;;;;;384.20;2329.60;;;;;;4974968;28;20331;-75
2023/12/02 04:29:41;;;;;;;;;;;384.20;2329.60;;;;;;4974751;28;19910;-74
2023/12/02 04:32:08;;;;;;;;;;;384.20;2329.60;;;;;;4974748;28;19984;-74
2023/12/02 04:34:33;;;;;;;;;;;384.20;2329.60;;;;;;4974001;28;19918;-75
2023/12/02 04:37:00;;;;;;;;;;;384.20;2329.60;;;;;;4974638;28;19905;-75
2023/12/02 04:39:25;;;;;;;;;;;384.20;2329.60;;;;;;4973466;28;19980;-74
2023/12/02 04:41:51;;;;;;;;;;;384.20;2329.60;;;;;;4974637;28;19961;-74
2023/12/02 04:44:17;;;;;;;;;;;384.20;2329.60;;;;;;4974669;28;20256;-75
2023/12/02 04:46:43;;;;;;;;;;;384.20;2329.60;;;;;;4974679;28;20461;-74
2023/12/02 04:49:08;;;;;;;;;;;384.30;2329.60;;;;;;4974236;28;19914;-74
2023/12/02 04:51:34;;;;;;;;;;;384.30;2329.60;;;;;;4974096;28;19916;-75
2023/12/02 04:53:59;;;;;;;;;;;384.30;2329.60;;;;;;4973969;28;19957;-74
2023/12/02 04:56:25;;;;;;;;;;;384.30;2329.60;;;;;;4974543;28;19913;-74
2023/12/02 04:58:51;;;;;;;;;;;384.40;2329.60;;;;;;4974358;28;19906;-75
2023/12/02 05:01:16;;;;;;;;;;;384.40;2329.60;;;;;;4974287;28;19960;-74
2023/12/02 05:03:42;;;;;;;;;;;384.50;2329.60;;;;;;4956977;28;20008;-74
2023/12/02 05:06:08;;;;;;;;;;;384.60;2329.60;;;;;;4974306;28;19960;-74
2023/12/02 05:08:33;;;;;;;;;;;384.60;2329.60;;;;;;4974190;28;20358;-75
2023/12/02 05:10:59;;;;;;;;;;;384.60;2329.60;;;;;;4956920;28;19906;-74
2023/12/02 05:13:25;;;;;;;;;;;384.70;2329.60;;;;;;4974225;28;19906;-74
2023/12/02 05:15:51;;;;;;;;;;;384.60;2329.60;;;;;;4972591;28;19996;-75
2023/12/02 05:18:16;;;;;;;;;;;384.60;2329.60;;;;;;4974058;28;19906;-74
2023/12/02 05:20:42;;;;;;;;;;;384.50;2329.60;;;;;;4974078;28;19910;-74
2023/12/02 05:23:07;;;;;;;;;;;384.50;2329.60;;;;;;4973908;28;19922;-75
2023/12/02 05:25:33;;;;;;;;;;;384.50;2329.60;;;;;;4974107;28;20012;-74
2023/12/02 05:27:59;;;;;;;;;;;384.40;2329.60;;;;;;4974058;28;19913;-75
2023/12/02 05:30:25;;;;;;;;;;;384.40;2329.60;;;;;;4974138;28;20315;-74
2023/12/02 05:32:51;;;;;;;;;;;384.40;2329.60;;;;;;4974067;28;19906;-74
2023/12/02 05:35:18;;;;;;;;;;;384.40;2329.60;;;;;;4974097;28;19928;-74
2023/12/02 05:37:44;;;;;;;;;;;384.40;2329.60;;;;;;4973957;28;19910;-74
2023/12/02 05:40:10;;;;;;;;;;;384.40;2329.60;;;;;;4973862;28;19906;-75
2023/12/02 05:42:35;;;;;;;;;;;384.40;2329.60;;;;;;4974044;28;19949;-74
2023/12/02 05:45:01;;;;;;;;;;;384.30;2329.60;;;;;;4974833;28;19937;-74
2023/12/02 05:47:26;;;;;;;;;;;384.30;2329.60;;;;;;4977706;28;19957;-74
2023/12/02 05:49:52;;;;;;;;;;;384.20;2329.60;;;;;;4982077;28;19916;-74
2023/12/02 05:52:18;;;;;;;;;;;384.00;2329.60;;;;;;4988080;28;20257;-74
2023/12/02 05:54:43;;;;;;;;;;;384.10;2329.60;;;;;;4993814;28;19937;-75
2023/12/02 05:57:09;;;;;;;;;;;384.00;2329.60;;;;;;4994918;28;20033;-74
2023/12/02 05:59:36;;;;;;;;;;;384.00;2329.60;;;;;;4968633;28;19913;-74
2023/12/02 06:02:01;;;;;;;;;;;384.00;2329.60;;;;;;4986351;28;19905;-74
2023/12/02 06:04:27;;;;;;;;;;;359.30;2329.60;;;;;;4989802;28;19910;-75
2023/12/02 06:06:52;;;;;;;;;;;359.30;2329.60;;;;;;4989801;28;20322;-74
2023/12/02 06:09:18;;;;;;;;;;;384.00;2329.60;;;;;;4995665;28;19917;-74
2023/12/02 06:11:44;;;;;;;;;;;384.00;2329.60;;;;;;4989021;28;20343;-74
2023/12/02 06:14:09;;;;;;;;;;;384.00;2329.60;;;;;;4995370;28;19941;-74
2023/12/02 06:16:35;;;;;;;;;;;384.10;2329.60;;;;;;4978580;28;20286;-74
2023/12/02 06:19:01;;;;;;;;;;;384.10;2329.60;;;;;;4995101;28;20331;-74
2023/12/02 06:21:26;;;;;;;;;;;384.10;2329.60;;;;;;4992289;28;19909;-74
2023/12/02 06:23:52;;;;;;;;;;;384.10;2329.60;;;;;;4993508;28;20239;-74
2023/12/02 06:26:18;;;;;;;;;;;384.20;2329.60;;;;;;4986547;28;19996;-73
2023/12/02 06:28:47;;;;;;;;;;;384.20;2329.60;;;;;;4991396;28;20021;-74
2023/12/02 06:31:13;;;;;;;;;;;384.30;2329.60;;;;;;4987028;28;19952;-74
2023/12/02 06:33:38;;;;;;;;;;;384.30;2329.60;;;;;;4986795;28;19952;-75
2023/12/02 06:36:04;;;;;;;;;;;384.30;2329.60;;;;;;4988907;28;19906;-74
2023/12/02 06:38:30;;;;;;;;;;;384.30;2329.60;;;;;;4987214;28;19937;-74
2023/12/02 06:40:55;;;;;;;;;;;384.30;2329.60;;;;;;4995234;28;19957;-74
2023/12/02 06:43:21;;;;;;;;;;;384.30;2329.60;;;;;;4986183;28;19950;-74
2023/12/02 06:45:47;;;;;;;;;;;384.30;2329.60;;;;;;4988149;28;19913;-74
2023/12/02 06:48:12;;;;;;;;;;;384.30;2329.60;;;;;;4991907;28;19925;-74
2023/12/02 06:50:38;;;;;;;;;;;384.30;2329.60;;;;;;4994596;28;20271;-74
2023/12/02 06:53:03;;;;;;;;;;;384.30;2329.60;;;;;;4989376;28;20000;-74
2023/12/02 06:55:31;;;;;;;;;;;384.40;2329.60;;;;;;4993914;28;19918;-75
2023/12/02 06:57:59;;;;;;;;;;;384.40;2329.60;;;;;;4968512;28;19906;-75
2023/12/02 07:00:25;;;;;;;;;;;384.40;2329.60;;;;;;4962788;28;19906;-75
2023/12/02 07:02:51;;;;;;;;;;;384.40;2329.60;;;;;;4982223;28;20412;-75
2023/12/02 07:05:17;;;;;;;;;;;384.40;2329.60;;;;;;4989743;28;20322;-75
2023/12/02 07:07:43;;;;;;;;;;;384.40;2329.60;;;;;;4971490;28;19917;-75
2023/12/02 07:10:09;;;;;;;;;;;384.50;2329.60;;;;;;4973420;28;19964;-76
2023/12/02 07:12:35;;;;;;;;;;;384.50;2329.60;;;;;;4982945;28;19914;-75
2023/12/02 07:15:01;;;;;;;;;;;384.50;2329.60;;;;;;4994974;28;20356;-80
2023/12/02 07:17:27;;;;;;;;;;;384.50;2329.60;;;;;;4986271;28;19965;-74
2023/12/02 07:19:52;;;;;;;;;;;384.50;2329.60;;;;;;4994631;28;20377;-76
2023/12/02 07:22:18;;;;;;;;;;;384.50;2329.60;;;;;;4991155;28;19925;-75
2023/12/02 07:24:43;;;;;;;;;;;384.60;2329.60;;;;;;4992133;28;19980;-75
2023/12/02 07:27:09;;;;;;;;;;;384.60;2329.60;;;;;;4993763;28;19910;-75
2023/12/02 07:29:35;;;;;;;;;;;384.70;2329.60;;;;;;4966702;28;19918;-74
2023/12/02 07:32:01;;;;;;;;;;;384.70;2329.60;;;;;;4986915;28;19964;-75
2023/12/02 07:34:27;;;;;;;;;;;384.70;2329.60;;;;;;4993338;28;20338;-74
2023/12/02 07:36:52;;;;;;;;;;;384.70;2329.60;;;;;;4975265;28;20284;-76
2023/12/02 07:39:18;;;;;;;;;;;384.80;2329.60;;;;;;4993099;28;19956;-75
2023/12/02 07:41:45;;;;;;;;;;;409.60;2355.20;;;;;;4993538;28;19967;-76
2023/12/02 07:44:11;;;;;;;;;;;409.70;2355.20;;;;;;4993000;28;19917;-75
2023/12/02 07:46:37;;;;;;;;;;;409.70;2355.20;;;;;;4990804;28;20386;-75
2023/12/02 07:49:03;;;;;;;;;;;409.80;2355.20;;;;;;4993100;28;19914;-76
2023/12/02 07:51:28;;;;;;;;;;;409.90;2355.20;;;;;;4988924;28;20376;-75
2023/12/02 07:53:54;;;;;;;;;;;409.90;2355.20;;;;;;4986511;28;19961;-74
2023/12/02 07:56:19;;;;;;;;;;;410.00;2355.20;;;;;;4985455;28;20017;-76
2023/12/02 07:58:45;;;;;;;;;;;410.00;2355.20;;;;;;4966367;28;19914;-75
2023/12/02 08:01:11;;;;;;;;;;;410.00;2355.20;;;;;;4980425;28;19949;-76
2023/12/02 08:03:36;;;;;;;;;;;410.00;2355.20;;;;;;4990682;28;20307;-75
2023/12/02 08:06:02;;;;;;;;;;;410.00;2355.20;;;;;;4989206;28;19906;-75
2023/12/02 08:08:27;;;;;;;;;;;410.00;2355.20;;;;;;4989975;28;20283;-76
2023/12/02 08:10:55;;;;;;;;;;;410.00;2355.20;;;;;;4990968;28;19914;-75
2023/12/02 08:13:21;;;;;;;;;;;410.00;2355.20;;;;;;4985965;28;20280;-75
2023/12/02 08:15:46;;;;;;;;;;;410.00;2355.20;;;;;;4989700;28;20021;-75
2023/12/02 08:18:12;;;;;;;;;;;410.00;2355.20;;;;;;4993558;28;19937;-75
2023/12/02 08:20:38;;;;;;;;;;;410.00;2355.20;;;;;;4990577;28;19956;-76
2023/12/02 08:23:03;;;;;;;;;;;410.00;2355.20;;;;;;4987137;28;19925;-75
2023/12/02 08:25:29;;;;;;;;;;;410.10;2355.20;;;;;;4988608;28;19910;-75
2023/12/02 08:27:55;;;;;;;;;;;410.10;2355.20;;;;;;4992374;28;19921;-75
2023/12/02 08:30:20;;;;;;;;;;;410.10;2355.20;;;;;;4989380;28;19917;-75
2023/12/02 08:32:46;;;;;;;;;;;410.10;2355.20;;;;;;4991832;28;20279;-74
2023/12/02 08:35:12;;;;;;;;;;;410.10;2355.20;;;;;;4992363;28;19910;-74
2023/12/02 08:37:37;;;;;;;;;;;410.10;2355.20;;;;;;4989289;28;19910;-75
2023/12/02 08:40:05;;;;;;;;;;;410.10;2355.20;;;;;;4976206;28;19909;-75
2023/12/02 08:42:30;;;;;;;;;;;410.10;2355.20;;;;;;4989442;28;20004;-75
2023/12/02 08:44:56;;;;;;;;;;;410.20;2355.20;;;;;;4988664;28;20012;-75
2023/12/02 08:47:22;;;;;;;;;;;410.20;2355.20;;;;;;4992069;28;19974;-75
2023/12/02 08:49:47;;;;;;;;;;;410.20;2355.20;;;;;;4993652;28;19918;-74
2023/12/02 08:52:13;;;;;;;;;;;410.20;2355.20;;;;;;4974661;28;19918;-74
2023/12/02 08:54:39;;;;;;;;;;;410.20;2355.20;;;;;;4988204;28;19952;-73
2023/12/02 08:57:04;;;;;;;;;;;410.20;2355.20;;;;;;4986189;28;19957;-73
2023/12/02 08:59:30;;;;;;;;;;;410.20;2355.20;;;;;;4989788;28;19910;-74
2023/12/02 09:01:56;;;;;;;;;;;410.30;2355.20;;;;;;4989033;28;19914;-74
2023/12/02 09:04:22;;;;;;;;;;;410.30;2355.20;;;;;;4984773;28;20280;-74
2023/12/02 09:06:48;;;;;;;;;;;410.40;2355.20;;;;;;4993821;28;19916;-73
2023/12/02 09:09:14;;;;;;;;;;;435.20;2355.20;;;;;;4987593;28;19921;-72
2023/12/02 09:11:41;;;;;;;;;;;435.30;2355.20;;;;;;4986261;28;20009;-72
2023/12/02 09:14:06;;;;;;;;;;;435.50;2355.20;;;;;;4981250;28;19910;-73
2023/12/02 09:16:32;;;;;;;;;;;435.50;2355.20;;;;;;4987728;28;20004;-73
2023/12/02 09:18:58;;;;;;;;;;;435.60;2355.20;;;;;;4971544;28;19905;-72
2023/12/02 09:21:40;;;;;;;;;;;435.80;2355.20;;;;;;4986852;28;19997;-73
2023/12/02 09:24:25;;;;;;;;;;;436.00;2355.20;;;;;;4990384;28;20027;-72
2023/12/02 09:26:51;;;;;;;;;;;;;;;;;;4987910;28;20025;-74
2023/12/02 09:29:18;;;;;;;;;;;461.10;2380.80;;;;;;4990246;28;20415;-73
2023/12/02 09:31:43;;;;;;;;;;;461.20;2380.80;;;;;;4986023;28;19914;-74
2023/12/02 09:34:29;;;;;;;;;;;461.50;2380.80;;;;;;4988101;28;19972;-72
2023/12/02 09:36:54;;;;;;;;;;;461.50;2380.80;;;;;;4985760;28;19932;-73
2023/12/02 09:39:20;;;;;;;;;;;;;;;;;;4985883;28;20355;-72
2023/12/02 09:41:46;;;;;;;;;;;;;;;;;;4987972;28;19910;-73
2023/12/02 09:44:18;;;;;;;;;;;486.60;2304.00;;;;;;4989947;28;19965;-73
2023/12/02 09:46:43;;;;;;;;;;;486.70;2304.00;;;;;;4981146;28;19910;-72
2023/12/02 09:49:14;;;;;;;;;;;486.90;2278.40;;;;;;4992146;28;19964;-74
2023/12/02 09:51:50;;;;;;;;;;;486.90;2252.80;;;;;;4991654;28;19916;-73
2023/12/02 09:54:20;;;;;;;;;;;487.00;2176.00;;;;;;4987952;28;19949;-73
2023/12/02 09:56:52;;;;;;;;;;;487.00;2201.60;;;;;;4989123;28;19937;-73
2023/12/02 09:59:38;;;;;;;;;;;486.90;2227.20;;;;;;4989327;28;19910;-74
2023/12/02 10:02:04;;;;;;;;;;;487.00;2252.80;;;;;;4983701;28;19961;-74
2023/12/02 10:04:39;;;;;;;;;;;486.80;2252.80;;;;;;4984338;28;20311;-73
2023/12/02 10:07:10;;;;;;;;;;;486.80;2227.20;;;;;;4990072;28;19921;-73
2023/12/02 10:09:38;;;;;;;;;;;486.70;2252.80;;;;;;4984477;28;19918;-73
2023/12/02 10:12:29;;;;;;;;;;;486.50;2201.60;;;;;;4986468;28;20000;-73
2023/12/02 10:15:00;;;;;;;;;;;486.50;2252.80;;;;;;4981167;28;19963;-74
2023/12/02 10:17:27;;;;;;;;;;;486.50;2252.80;;;;;;4983703;28;19910;-74
2023/12/02 10:19:56;;;;;;;;;;;486.40;2278.40;;;;;;4989156;28;20382;-74
2023/12/02 10:22:27;;;;;;;;;;;461.70;2304.00;;;;;;4990808;28;20052;-75
2023/12/02 10:25:08;;;;;;;;;;;461.60;2355.20;;;;;;4990152;28;19910;-76
2023/12/02 10:27:36;;;;;;;;;;;461.50;2355.20;;;;;;4990808;28;19941;-74
2023/12/02 10:30:17;;;;;;;;;;;461.50;2355.20;;;;;;4986765;28;19936;-74
2023/12/02 10:32:43;;;;;;;;;;;461.50;2380.80;;;;;;4989691;28;19956;-75
2023/12/02 10:35:23;;;;;;;;;;;461.50;2380.80;;;;;;4990460;28;20387;-74
2023/12/02 10:38:03;;;;;;;;;;;461.40;2380.80;;;;;;4984178;28;19957;-74
2023/12/02 10:40:30;;;;;;;;;;;461.40;2380.80;;;;;;4983911;28;19910;-75
2023/12/02 10:43:01;;;;;;;;;;;461.40;2380.80;;;;;;4982640;28;19910;-75
2023/12/02 10:45:29;;;;;;;;;;;461.40;2380.80;;;;;;4994303;28;19909;-75
2023/12/02 10:47:55;;;;;;;;;;;461.30;2380.80;;;;;;4991183;28;19964;-76
2023/12/02 10:50:21;;;;;;;;;;;461.30;2380.80;;;;;;4997334;28;19910;-75
2023/12/02 10:52:56;;;;;;;;;;;461.30;2380.80;;;;;;4998219;28;19914;-75
2023/12/02 10:55:24;;;;;;;;;;;461.30;2380.80;;;;;;4994102;28;19906;-75
2023/12/02 10:57:49;;;;;;;;;;;461.40;2380.80;;;;;;4991416;28;19906;-74
2023/12/02 11:00:16;;;;;;;;;;;461.40;2380.80;;;;;;4972794;28;19916;-75
2023/12/02 11:02:46;;;;;;;;;;;461.30;2380.80;;;;;;4991282;28;20363;-75
2023/12/02 11:05:12;;;;;;;;;;;461.40;2380.80;;;;;;4988675;28;20340;-75
2023/12/02 11:07:39;;;;;;;;;;;461.40;2380.80;;;;;;4990680;28;19965;-74
2023/12/02 11:10:08;;;;;;;;;;;461.40;2380.80;;;;;;4992124;28;19976;-74
2023/12/02 11:12:40;;;;;;;;;;;461.50;2380.80;;;;;;4989526;28;20005;-74
2023/12/02 11:15:09;;;;;;;;;;;461.50;2380.80;;;;;;4990211;28;20291;-75
2023/12/02 11:17:38;;;;;;;;;;;461.50;2380.80;;;;;;4993601;28;19928;-75
2023/12/02 11:20:09;;;;;;;;;;;461.50;2380.80;;;;;;4983093;28;19914;-74
2023/12/02 11:22:48;;;;;;;;;;;461.50;2380.80;;;;;;4994158;28;19922;-74
2023/12/02 11:25:37;;;;;;;;;;;461.50;2380.80;;;;;;4992901;28;20367;-75
2023/12/02 11:28:06;;;;;;;;;;;461.60;2380.80;;;;;;4989539;28;19918;-75
2023/12/02 11:30:49;;;;;;;;;;;461.70;2380.80;;;;;;4991179;28;19916;-76
2023/12/02 11:33:36;;;;;;;;;;;461.70;2380.80;;;;;;4990251;28;19920;-75
2023/12/02 11:36:08;;;;;;;;;;;461.70;2380.80;;;;;;4977554;28;19956;-74
2023/12/02 11:38:38;;;;;;;;;;;486.40;2380.80;;;;;;4989927;28;19960;-74
2023/12/02 11:41:12;;;;;;;;;;;486.40;2380.80;;;;;;4989775;28;19944;-75
2023/12/02 11:44:00;;;;;;;;;;;486.40;2380.80;;;;;;4984592;28;19941;-76
2023/12/02 11:46:29;;;;;;;;;;;486.40;2380.80;;;;;;4993171;28;19949;-77
2023/12/02 11:49:13;;;;;;;;;;;486.40;2380.80;;;;;;4977319;28;20283;-75
2023/12/02 11:51:51;;;;;;;;;;;486.50;2380.80;;;;;;4971665;28;19910;-75
2023/12/02 11:54:35;;;;;;;;;;;486.50;2380.80;;;;;;4983852;28;19954;-74
2023/12/02 11:57:20;;;;;;;;;;;486.50;2380.80;;;;;;4968907;28;19910;-75
2023/12/02 12:00:06;;;;;;;;;;;486.50;2380.80;;;;;;4981264;28;20261;-76
2023/12/02 12:02:44;;;;;;;;;;;486.60;2380.80;;;;;;4986866;28;19964;-75
2023/12/02 12:05:18;;;;;;;;;;;486.60;2380.80;;;;;;4987465;28;19956;-75
2023/12/02 12:07:44;;;;;;;;;;;486.70;2355.20;;;;;;4982571;28;19992;-74
2023/12/02 12:10:18;;;;;;;;;;;486.70;2329.60;;;;;;4963756;28;20000;-74
2023/12/02 12:12:45;;;;;;;;;;;486.70;2355.20;;;;;;4988181;28;19910;-75
2023/12/02 12:15:11;;;;;;;;;;;486.70;2329.60;;;;;;4986204;28;19910;-75
2023/12/02 12:17:38;;;;;;;;;;;486.70;2304.00;;;;;;4983975;28;19979;-76
2023/12/02 12:20:17;;;;;;;;;;;486.70;2304.00;;;;;;4987674;28;19909;-75
2023/12/02 12:22:42;;;;;;;;;;;486.80;2329.60;;;;;;4974228;28;19922;-75
2023/12/02 12:25:08;;;;;;;;;;;486.80;2278.40;;;;;;4984094;28;19972;-76
2023/12/02 12:27:33;;;;;;;;;;;486.80;2329.60;;;;;;4992880;28;19929;-74
2023/12/02 12:29:59;;;;;;;;;;;486.80;2304.00;;;;;;4986457;28;19914;-75
2023/12/02 12:32:25;;;;;;;;;;;486.80;2304.00;;;;;;4989485;28;20385;-75
2023/12/02 12:34:54;;;;;;;;;;;486.80;2329.60;;;;;;4980833;28;19917;-75
2023/12/02 12:37:19;;;;;;;;;;;486.80;2329.60;;;;;;4990126;28;20576;-75
2023/12/02 12:39:46;;;;;;;;;;;486.80;2329.60;;;;;;4983285;28;19963;-75
2023/12/02 12:42:12;;;;;;;;;;;486.80;2304.00;;;;;;4991257;28;19910;-75
2023/12/02 12:44:41;;;;;;;;;;;486.80;2304.00;;;;;;4972899;28;19927;-76
2023/12/02 12:47:08;;;;;;;;;;;486.70;2380.80;;;;;;4977496;28;20348;-75
2023/12/02 12:49:37;;;;;;;;;;;486.80;2355.20;;;;;;4990959;28;19928;-75
2023/12/02 12:52:04;;;;;;;;;;;486.70;2380.80;;;;;;4992082;28;20498;-76
2023/12/02 12:54:33;;;;;;;;;;;486.70;2380.80;;;;;;4991482;28;20288;-76
2023/12/02 12:57:03;;;;;;;;;;;486.70;2380.80;;;;;;4988874;28;19949;-75
2023/12/02 12:59:31;;;;;;;;;;;486.70;2380.80;;;;;;4991037;28;19918;-75
2023/12/02 13:01:57;;;;;;;;;;;486.70;2380.80;;;;;;4984163;28;19909;-75
2023/12/02 13:04:22;;;;;;;;;;;486.70;2380.80;;;;;;4968263;28;19957;-75
2023/12/02 13:06:48;;;;;;;;;;;486.80;2380.80;;;;;;4989579;28;19920;-75
2023/12/02 13:09:16;;;;;;;;;;;486.70;2355.20;;;;;;4987972;28;20045;-74
2023/12/02 13:11:54;;;;;;;;;;;486.80;2355.20;;;;;;4971770;28;20012;-75
2023/12/02 13:14:23;;;;;;;;;;;486.80;2355.20;;;;;;4982756;28;19917;-75
2023/12/02 13:16:49;;;;;;;;;;;486.80;2380.80;;;;;;4991944;28;19909;-75
2023/12/02 13:19:16;;;;;;;;;;;486.90;2304.00;;;;;;4987550;28;20339;-75
2023/12/02 13:21:42;;;;;;;;;;;486.90;2304.00;;;;;;4990622;28;19917;-75
2023/12/02 13:24:07;;;;;;;;;;;486.90;2278.40;;;;;;4974724;28;19914;-75
2023/12/02 13:26:36;;;;;;;;;;;486.80;2252.80;;;;;;4985459;28;20012;-75
2023/12/02 13:29:03;;;;;;;;;;;487.00;2201.60;;;;;;4988253;28;20005;-74
2023/12/02 13:31:29;;;;;;;;;;;487.00;2201.60;;;;;;4987600;28;19945;-75
2023/12/02 13:34:14;;;;;;;;;;;487.00;2201.60;;;;;;4977930;28;19913;-74
2023/12/02 13:36:42;;;;;;;;;;;487.00;2227.20;;;;;;4989143;28;19910;-74
2023/12/02 13:39:21;;;;;;;;;;;487.00;2201.60;;;;;;4982279;28;19948;-75
2023/12/02 13:41:48;;;;;;;;;;;487.00;2176.00;;;;;;4989818;28;20363;-75
2023/12/02 13:44:16;;;;;;;;;;;487.00;2201.60;;;;;;4973218;28;19972;-75